Vereeniging, South Africa
Current Conditions -  °F | °C
As of 4:00 PM on Monday 24 Nov 2014 (Local Time) from FAOR Reporting Station
Clear Clear  
Wind Chill: 73°   Ceiling: Unl
Heat Index: 73°   Visibility: 6mi
Dew Point: 46°   Wind: 3mph
Humidity: 38%   Direction: 320°NW
Pressure: 30.18"   Gusts: NA
Location:  26.65°S, 27.96°E
Report Text: FAOR 241400Z 32003KT 250V030 CAVOK 23/08 Q1022 NOSIG
Loading
Personal Weather Stations






























Interactive Weather Map New forecast layout! Learn more

10-Day Weather Forecast

Advertisements
Track Severe Weather on mobile